sensor_id;sensor_type;location;lat;lon;timestamp;P1;durP1;ratioP1;P2;durP2;ratioP2
34144;SDS011;20422;53.014;8.886;2022-10-16T00:01:56;3.28;;;1.92;;
34144;SDS011;20422;53.014;8.886;2022-10-16T00:04:21;6.35;;;2.47;;
34144;SDS011;20422;53.014;8.886;2022-10-16T00:06:47;5.30;;;1.90;;
34144;SDS011;20422;53.014;8.886;2022-10-16T00:09:12;2.67;;;2.20;;
34144;SDS011;20422;53.014;8.886;2022-10-16T00:11:38;3.75;;;1.50;;
34144;SDS011;20422;53.014;8.886;2022-10-16T00:14:06;4.72;;;2.03;;
34144;SDS011;20422;53.014;8.886;2022-10-16T00:19:00;8.05;;;1.90;;
34144;SDS011;20422;53.014;8.886;2022-10-16T00:21:26;3.80;;;1.45;;
34144;SDS011;20422;53.014;8.886;2022-10-16T00:23:54;3.33;;;1.90;;
34144;SDS011;20422;53.014;8.886;2022-10-16T00:26:21;10.02;;;2.00;;
34144;SDS011;20422;53.014;8.886;2022-10-16T00:28:47;3.65;;;1.30;;
34144;SDS011;20422;53.014;8.886;2022-10-16T00:31:14;4.82;;;2.35;;
34144;SDS011;20422;53.014;8.886;2022-10-16T00:33:40;9.18;;;2.03;;
34144;SDS011;20422;53.014;8.886;2022-10-16T00:36:06;4.93;;;1.88;;
34144;SDS011;20422;53.014;8.886;2022-10-16T00:38:34;2.92;;;2.10;;
34144;SDS011;20422;53.014;8.886;2022-10-16T00:41:00;3.92;;;1.67;;
34144;SDS011;20422;53.014;8.886;2022-10-16T00:43:33;7.05;;;1.90;;
34144;SDS011;20422;53.014;8.886;2022-10-16T00:46:05;2.63;;;1.50;;
34144;SDS011;20422;53.014;8.886;2022-10-16T00:48:35;6.25;;;2.03;;
34144;SDS011;20422;53.014;8.886;2022-10-16T00:51:01;5.72;;;1.58;;
34144;SDS011;20422;53.014;8.886;2022-10-16T00:53:26;2.90;;;1.80;;
34144;SDS011;20422;53.014;8.886;2022-10-16T00:55:53;6.88;;;2.20;;
34144;SDS011;20422;53.014;8.886;2022-10-16T00:58:18;8.93;;;1.95;;
34144;SDS011;20422;53.014;8.886;2022-10-16T01:00:45;4.90;;;1.67;;
34144;SDS011;20422;53.014;8.886;2022-10-16T01:03:24;4.53;;;1.50;;
34144;SDS011;20422;53.014;8.886;2022-10-16T01:06:00;4.38;;;1.55;;
34144;SDS011;20422;53.014;8.886;2022-10-16T01:11:41;3.38;;;2.00;;
34144;SDS011;20422;53.014;8.886;2022-10-16T01:17:12;3.03;;;2.08;;
34144;SDS011;20422;53.014;8.886;2022-10-16T01:20:08;4.95;;;2.30;;
34144;SDS011;20422;53.014;8.886;2022-10-16T01:25:17;6.35;;;2.53;;
34144;SDS011;20422;53.014;8.886;2022-10-16T01:28:06;5.63;;;2.45;;
34144;SDS011;20422;53.014;8.886;2022-10-16T01:30:37;4.70;;;2.55;;
34144;SDS011;20422;53.014;8.886;2022-10-16T01:33:14;9.15;;;3.20;;
34144;SDS011;20422;53.014;8.886;2022-10-16T01:35:51;5.22;;;2.50;;
34144;SDS011;20422;53.014;8.886;2022-10-16T01:38:21;8.80;;;2.83;;
34144;SDS011;20422;53.014;8.886;2022-10-16T01:40:56;3.65;;;2.63;;
34144;SDS011;20422;53.014;8.886;2022-10-16T01:43:30;8.68;;;2.88;;
34144;SDS011;20422;53.014;8.886;2022-10-16T01:46:03;3.70;;;2.45;;
34144;SDS011;20422;53.014;8.886;2022-10-16T01:48:30;6.45;;;2.75;;
34144;SDS011;20422;53.014;8.886;2022-10-16T01:51:01;8.57;;;2.65;;
34144;SDS011;20422;53.014;8.886;2022-10-16T01:53:32;7.30;;;3.20;;
34144;SDS011;20422;53.014;8.886;2022-10-16T01:55:58;4.13;;;2.67;;
34144;SDS011;20422;53.014;8.886;2022-10-16T01:58:26;8.00;;;3.03;;
34144;SDS011;20422;53.014;8.886;2022-10-16T02:00:55;6.03;;;3.22;;
34144;SDS011;20422;53.014;8.886;2022-10-16T02:03:21;10.43;;;3.13;;
34144;SDS011;20422;53.014;8.886;2022-10-16T02:05:51;8.32;;;2.97;;
34144;SDS011;20422;53.014;8.886;2022-10-16T02:08:22;11.45;;;2.90;;
34144;SDS011;20422;53.014;8.886;2022-10-16T02:10:49;5.05;;;2.92;;
34144;SDS011;20422;53.014;8.886;2022-10-16T02:13:22;10.68;;;3.53;;
34144;SDS011;20422;53.014;8.886;2022-10-16T02:15:54;10.40;;;3.33;;
34144;SDS011;20422;53.014;8.886;2022-10-16T02:18:19;5.95;;;3.25;;
34144;SDS011;20422;53.014;8.886;2022-10-16T02:20:48;5.65;;;2.63;;
34144;SDS011;20422;53.014;8.886;2022-10-16T02:23:24;10.05;;;3.47;;
34144;SDS011;20422;53.014;8.886;2022-10-16T02:25:57;6.47;;;2.63;;
34144;SDS011;20422;53.014;8.886;2022-10-16T02:28:24;8.77;;;2.88;;
34144;SDS011;20422;53.014;8.886;2022-10-16T02:30:57;10.38;;;2.95;;
34144;SDS011;20422;53.014;8.886;2022-10-16T02:33:25;6.10;;;2.60;;
34144;SDS011;20422;53.014;8.886;2022-10-16T02:35:52;6.05;;;3.28;;
34144;SDS011;20422;53.014;8.886;2022-10-16T02:38:19;6.35;;;2.47;;
34144;SDS011;20422;53.014;8.886;2022-10-16T02:40:46;5.95;;;2.95;;
34144;SDS011;20422;53.014;8.886;2022-10-16T02:43:11;6.28;;;3.33;;
34144;SDS011;20422;53.014;8.886;2022-10-16T02:45:38;10.15;;;3.40;;
34144;SDS011;20422;53.014;8.886;2022-10-16T02:48:04;5.63;;;2.95;;
34144;SDS011;20422;53.014;8.886;2022-10-16T02:50:30;9.30;;;3.03;;
34144;SDS011;20422;53.014;8.886;2022-10-16T02:52:55;11.50;;;3.50;;
34144;SDS011;20422;53.014;8.886;2022-10-16T02:55:20;5.20;;;2.92;;
34144;SDS011;20422;53.014;8.886;2022-10-16T02:57:46;7.38;;;2.90;;
34144;SDS011;20422;53.014;8.886;2022-10-16T03:00:12;5.72;;;3.83;;
34144;SDS011;20422;53.014;8.886;2022-10-16T03:02:39;9.10;;;3.80;;
34144;SDS011;20422;53.014;8.886;2022-10-16T03:05:05;14.15;;;3.50;;
34144;SDS011;20422;53.014;8.886;2022-10-16T03:07:30;10.77;;;3.50;;
34144;SDS011;20422;53.014;8.886;2022-10-16T03:09:56;8.38;;;3.47;;
34144;SDS011;20422;53.014;8.886;2022-10-16T03:12:21;13.77;;;4.68;;
34144;SDS011;20422;53.014;8.886;2022-10-16T03:14:47;9.98;;;3.63;;
34144;SDS011;20422;53.014;8.886;2022-10-16T03:17:12;11.43;;;4.95;;
34144;SDS011;20422;53.014;8.886;2022-10-16T03:19:38;9.88;;;3.88;;
34144;SDS011;20422;53.014;8.886;2022-10-16T03:22:04;11.00;;;4.53;;
34144;SDS011;20422;53.014;8.886;2022-10-16T03:24:29;9.65;;;4.43;;
34144;SDS011;20422;53.014;8.886;2022-10-16T03:26:54;11.40;;;4.88;;
34144;SDS011;20422;53.014;8.886;2022-10-16T03:29:20;7.85;;;4.90;;
34144;SDS011;20422;53.014;8.886;2022-10-16T03:31:45;9.15;;;5.70;;
34144;SDS011;20422;53.014;8.886;2022-10-16T03:34:13;10.27;;;6.25;;
34144;SDS011;20422;53.014;8.886;2022-10-16T03:36:38;12.10;;;6.60;;
34144;SDS011;20422;53.014;8.886;2022-10-16T03:39:03;10.88;;;6.25;;
34144;SDS011;20422;53.014;8.886;2022-10-16T03:41:29;14.98;;;7.18;;
34144;SDS011;20422;53.014;8.886;2022-10-16T03:43:54;18.35;;;7.60;;
34144;SDS011;20422;53.014;8.886;2022-10-16T03:46:19;13.18;;;7.43;;
34144;SDS011;20422;53.014;8.886;2022-10-16T03:48:54;16.15;;;7.18;;
34144;SDS011;20422;53.014;8.886;2022-10-16T03:55:22;16.33;;;8.55;;
34144;SDS011;20422;53.014;8.886;2022-10-16T03:58:19;12.85;;;7.15;;
34144;SDS011;20422;53.014;8.886;2022-10-16T04:01:34;14.38;;;8.25;;
34144;SDS011;20422;53.014;8.886;2022-10-16T04:11:37;16.80;;;8.43;;
34144;SDS011;20422;53.014;8.886;2022-10-16T04:14:42;15.70;;;8.48;;
34144;SDS011;20422;53.014;8.886;2022-10-16T04:17:29;21.17;;;9.45;;
34144;SDS011;20422;53.014;8.886;2022-10-16T04:20:24;15.43;;;9.45;;
34144;SDS011;20422;53.014;8.886;2022-10-16T04:23:25;20.73;;;9.48;;
34144;SDS011;20422;53.014;8.886;2022-10-16T04:26:19;15.85;;;10.05;;
34144;SDS011;20422;53.014;8.886;2022-10-16T04:29:17;16.92;;;8.85;;
34144;SDS011;20422;53.014;8.886;2022-10-16T04:34:46;20.48;;;9.40;;
34144;SDS011;20422;53.014;8.886;2022-10-16T04:37:46;16.13;;;9.82;;
34144;SDS011;20422;53.014;8.886;2022-10-16T04:40:44;14.00;;;9.27;;
34144;SDS011;20422;53.014;8.886;2022-10-16T04:43:55;22.75;;;9.55;;
34144;SDS011;20422;53.014;8.886;2022-10-16T04:47:03;24.05;;;9.85;;
34144;SDS011;20422;53.014;8.886;2022-10-16T04:50:05;17.77;;;9.77;;
34144;SDS011;20422;53.014;8.886;2022-10-16T04:52:56;16.90;;;9.38;;
34144;SDS011;20422;53.014;8.886;2022-10-16T04:55:30;18.38;;;9.73;;
34144;SDS011;20422;53.014;8.886;2022-10-16T04:58:28;19.35;;;10.13;;
34144;SDS011;20422;53.014;8.886;2022-10-16T05:01:30;26.95;;;12.50;;
34144;SDS011;20422;53.014;8.886;2022-10-16T05:04:20;18.80;;;10.18;;
34144;SDS011;20422;53.014;8.886;2022-10-16T05:06:53;23.10;;;11.80;;
34144;SDS011;20422;53.014;8.886;2022-10-16T05:09:57;23.35;;;11.27;;
34144;SDS011;20422;53.014;8.886;2022-10-16T05:12:48;20.02;;;11.13;;
34144;SDS011;20422;53.014;8.886;2022-10-16T05:18:31;19.52;;;10.77;;
34144;SDS011;20422;53.014;8.886;2022-10-16T05:24:45;17.85;;;12.07;;
34144;SDS011;20422;53.014;8.886;2022-10-16T05:28:04;26.48;;;11.85;;
34144;SDS011;20422;53.014;8.886;2022-10-16T05:31:12;19.13;;;11.40;;
34144;SDS011;20422;53.014;8.886;2022-10-16T05:34:35;22.67;;;11.98;;
34144;SDS011;20422;53.014;8.886;2022-10-16T05:37:52;24.25;;;12.75;;
34144;SDS011;20422;53.014;8.886;2022-10-16T05:40:40;19.98;;;11.50;;
34144;SDS011;20422;53.014;8.886;2022-10-16T05:46:52;17.25;;;10.98;;
34144;SDS011;20422;53.014;8.886;2022-10-16T05:49:42;15.93;;;10.10;;
34144;SDS011;20422;53.014;8.886;2022-10-16T05:52:41;20.13;;;10.20;;
34144;SDS011;20422;53.014;8.886;2022-10-16T05:55:30;24.67;;;11.93;;
34144;SDS011;20422;53.014;8.886;2022-10-16T05:58:22;18.95;;;11.20;;
34144;SDS011;20422;53.014;8.886;2022-10-16T06:00:53;17.27;;;10.60;;
34144;SDS011;20422;53.014;8.886;2022-10-16T06:03:52;19.42;;;9.98;;
34144;SDS011;20422;53.014;8.886;2022-10-16T06:09:49;20.98;;;8.93;;
34144;SDS011;20422;53.014;8.886;2022-10-16T06:13:03;16.15;;;9.93;;
34144;SDS011;20422;53.014;8.886;2022-10-16T06:16:14;18.92;;;9.85;;
34144;SDS011;20422;53.014;8.886;2022-10-16T06:19:18;21.63;;;9.80;;
34144;SDS011;20422;53.014;8.886;2022-10-16T06:22:00;14.27;;;8.75;;
34144;SDS011;20422;53.014;8.886;2022-10-16T06:24:58;18.40;;;9.23;;
34144;SDS011;20422;53.014;8.886;2022-10-16T06:27:26;16.10;;;9.65;;
34144;SDS011;20422;53.014;8.886;2022-10-16T06:29:57;16.35;;;8.60;;
34144;SDS011;20422;53.014;8.886;2022-10-16T06:33:08;12.85;;;8.48;;
34144;SDS011;20422;53.014;8.886;2022-10-16T06:39:52;16.98;;;8.23;;
34144;SDS011;20422;53.014;8.886;2022-10-16T06:43:05;15.45;;;8.45;;
34144;SDS011;20422;53.014;8.886;2022-10-16T06:48:55;17.67;;;9.00;;
34144;SDS011;20422;53.014;8.886;2022-10-16T06:51:40;13.40;;;8.32;;
34144;SDS011;20422;53.014;8.886;2022-10-16T06:55:12;16.63;;;7.82;;
34144;SDS011;20422;53.014;8.886;2022-10-16T06:58:49;10.85;;;8.07;;
34144;SDS011;20422;53.014;8.886;2022-10-16T07:01:34;14.60;;;7.50;;
34144;SDS011;20422;53.014;8.886;2022-10-16T07:04:40;10.75;;;7.50;;
34144;SDS011;20422;53.014;8.886;2022-10-16T07:07:47;12.40;;;6.82;;
34144;SDS011;20422;53.014;8.886;2022-10-16T07:13:26;11.52;;;6.45;;
34144;SDS011;20422;53.014;8.886;2022-10-16T07:16:35;13.18;;;6.30;;
34144;SDS011;20422;53.014;8.886;2022-10-16T07:19:53;10.45;;;5.72;;
34144;SDS011;20422;53.014;8.886;2022-10-16T07:25:41;8.68;;;5.32;;
34144;SDS011;20422;53.014;8.886;2022-10-16T07:28:24;6.50;;;4.82;;
34144;SDS011;20422;53.014;8.886;2022-10-16T07:31:31;6.80;;;3.90;;
34144;SDS011;20422;53.014;8.886;2022-10-16T07:34:05;8.18;;;4.88;;
34144;SDS011;20422;53.014;8.886;2022-10-16T07:37:03;6.97;;;4.38;;
34144;SDS011;20422;53.014;8.886;2022-10-16T07:40:08;9.02;;;4.47;;
34144;SDS011;20422;53.014;8.886;2022-10-16T07:56:22;6.90;;;3.80;;
34144;SDS011;20422;53.014;8.886;2022-10-16T07:59:40;6.32;;;3.72;;
34144;SDS011;20422;53.014;8.886;2022-10-16T08:02:32;6.47;;;3.83;;
34144;SDS011;20422;53.014;8.886;2022-10-16T08:04:57;7.10;;;3.90;;
34144;SDS011;20422;53.014;8.886;2022-10-16T08:07:22;5.10;;;3.35;;
34144;SDS011;20422;53.014;8.886;2022-10-16T08:09:50;5.15;;;3.70;;
34144;SDS011;20422;53.014;8.886;2022-10-16T08:12:16;4.63;;;3.15;;
34144;SDS011;20422;53.014;8.886;2022-10-16T08:14:42;5.22;;;3.60;;
34144;SDS011;20422;53.014;8.886;2022-10-16T08:17:07;6.70;;;3.85;;
34144;SDS011;20422;53.014;8.886;2022-10-16T08:19:33;7.55;;;4.13;;
34144;SDS011;20422;53.014;8.886;2022-10-16T08:21:59;5.63;;;3.78;;
34144;SDS011;20422;53.014;8.886;2022-10-16T08:24:25;9.80;;;3.95;;
34144;SDS011;20422;53.014;8.886;2022-10-16T08:26:53;6.10;;;3.30;;
34144;SDS011;20422;53.014;8.886;2022-10-16T08:29:18;8.88;;;2.95;;
34144;SDS011;20422;53.014;8.886;2022-10-16T08:31:43;5.57;;;2.83;;
34144;SDS011;20422;53.014;8.886;2022-10-16T08:34:09;5.63;;;2.72;;
34144;SDS011;20422;53.014;8.886;2022-10-16T08:36:34;5.40;;;3.15;;
34144;SDS011;20422;53.014;8.886;2022-10-16T08:38:59;8.18;;;3.42;;
34144;SDS011;20422;53.014;8.886;2022-10-16T08:49:48;6.93;;;2.00;;
34144;SDS011;20422;53.014;8.886;2022-10-16T08:52:22;4.40;;;2.67;;
34144;SDS011;20422;53.014;8.886;2022-10-16T08:54:51;5.82;;;2.08;;
34144;SDS011;20422;53.014;8.886;2022-10-16T08:57:20;8.35;;;2.30;;
34144;SDS011;20422;53.014;8.886;2022-10-16T08:59:47;5.60;;;2.20;;
34144;SDS011;20422;53.014;8.886;2022-10-16T09:02:28;4.53;;;1.80;;
34144;SDS011;20422;53.014;8.886;2022-10-16T09:10:22;6.15;;;1.98;;
34144;SDS011;20422;53.014;8.886;2022-10-16T09:13:27;4.30;;;1.52;;
34144;SDS011;20422;53.014;8.886;2022-10-16T09:19:00;6.20;;;1.70;;
34144;SDS011;20422;53.014;8.886;2022-10-16T09:21:49;3.55;;;1.60;;
34144;SDS011;20422;53.014;8.886;2022-10-16T09:24:17;21.52;;;2.13;;
34144;SDS011;20422;53.014;8.886;2022-10-16T09:26:45;5.57;;;1.42;;
34144;SDS011;20422;53.014;8.886;2022-10-16T09:29:12;5.22;;;1.80;;
34144;SDS011;20422;53.014;8.886;2022-10-16T09:31:38;6.93;;;1.25;;
34144;SDS011;20422;53.014;8.886;2022-10-16T09:34:04;3.28;;;1.77;;
34144;SDS011;20422;53.014;8.886;2022-10-16T09:36:42;8.90;;;1.45;;
34144;SDS011;20422;53.014;8.886;2022-10-16T09:39:10;7.22;;;1.63;;
34144;SDS011;20422;53.014;8.886;2022-10-16T09:41:37;3.40;;;1.00;;
34144;SDS011;20422;53.014;8.886;2022-10-16T09:44:16;5.78;;;1.73;;
34144;SDS011;20422;53.014;8.886;2022-10-16T09:46:41;3.17;;;1.27;;
34144;SDS011;20422;53.014;8.886;2022-10-16T09:49:23;5.78;;;1.38;;
34144;SDS011;20422;53.014;8.886;2022-10-16T09:51:50;4.68;;;1.20;;
34144;SDS011;20422;53.014;8.886;2022-10-16T09:54:17;3.35;;;1.10;;
34144;SDS011;20422;53.014;8.886;2022-10-16T09:56:44;8.98;;;2.20;;
34144;SDS011;20422;53.014;8.886;2022-10-16T09:59:19;8.68;;;1.50;;
34144;SDS011;20422;53.014;8.886;2022-10-16T10:01:47;5.43;;;1.20;;
34144;SDS011;20422;53.014;8.886;2022-10-16T10:04:15;2.80;;;1.42;;
34144;SDS011;20422;53.014;8.886;2022-10-16T10:09:25;4.03;;;1.25;;
34144;SDS011;20422;53.014;8.886;2022-10-16T10:11:53;3.72;;;1.30;;
34144;SDS011;20422;53.014;8.886;2022-10-16T10:19:29;2.85;;;1.52;;
34144;SDS011;20422;53.014;8.886;2022-10-16T10:21:55;8.70;;;1.27;;
34144;SDS011;20422;53.014;8.886;2022-10-16T10:24:20;3.75;;;1.30;;
34144;SDS011;20422;53.014;8.886;2022-10-16T10:26:48;7.07;;;1.20;;
34144;SDS011;20422;53.014;8.886;2022-10-16T10:29:20;5.25;;;1.30;;
34144;SDS011;20422;53.014;8.886;2022-10-16T10:37:27;6.15;;;1.55;;
34144;SDS011;20422;53.014;8.886;2022-10-16T10:40:34;3.25;;;1.35;;
34144;SDS011;20422;53.014;8.886;2022-10-16T10:46:05;3.33;;;1.20;;
34144;SDS011;20422;53.014;8.886;2022-10-16T10:48:54;4.05;;;1.30;;
34144;SDS011;20422;53.014;8.886;2022-10-16T11:00:12;2.38;;;0.82;;
34144;SDS011;20422;53.014;8.886;2022-10-16T11:16:19;3.67;;;1.20;;
34144;SDS011;20422;53.014;8.886;2022-10-16T11:19:04;6.63;;;1.42;;
34144;SDS011;20422;53.014;8.886;2022-10-16T11:21:55;5.57;;;1.08;;
34144;SDS011;20422;53.014;8.886;2022-10-16T11:27:08;4.32;;;1.38;;
34144;SDS011;20422;53.014;8.886;2022-10-16T11:29:40;3.10;;;1.00;;
34144;SDS011;20422;53.014;8.886;2022-10-16T11:35:21;4.75;;;1.10;;
34144;SDS011;20422;53.014;8.886;2022-10-16T11:37:57;5.82;;;1.50;;
34144;SDS011;20422;53.014;8.886;2022-10-16T11:40:33;6.90;;;1.00;;
34144;SDS011;20422;53.014;8.886;2022-10-16T11:45:40;5.20;;;1.27;;
34144;SDS011;20422;53.014;8.886;2022-10-16T11:51:05;7.95;;;1.30;;
34144;SDS011;20422;53.014;8.886;2022-10-16T11:56:23;3.85;;;1.00;;
34144;SDS011;20422;53.014;8.886;2022-10-16T12:01:31;4.95;;;1.00;;
34144;SDS011;20422;53.014;8.886;2022-10-16T12:04:23;8.18;;;1.20;;
34144;SDS011;20422;53.014;8.886;2022-10-16T12:07:01;7.95;;;1.20;;
34144;SDS011;20422;53.014;8.886;2022-10-16T12:09:32;5.97;;;1.30;;
34144;SDS011;20422;53.014;8.886;2022-10-16T12:12:01;8.57;;;1.30;;
34144;SDS011;20422;53.014;8.886;2022-10-16T12:16:56;5.72;;;1.10;;
34144;SDS011;20422;53.014;8.886;2022-10-16T12:19:27;6.68;;;1.30;;
34144;SDS011;20422;53.014;8.886;2022-10-16T12:21:58;6.13;;;1.20;;
34144;SDS011;20422;53.014;8.886;2022-10-16T12:24:42;5.82;;;1.17;;
34144;SDS011;20422;53.014;8.886;2022-10-16T12:29:54;11.82;;;1.20;;
34144;SDS011;20422;53.014;8.886;2022-10-16T12:34:59;6.15;;;1.10;;
34144;SDS011;20422;53.014;8.886;2022-10-16T12:37:28;6.07;;;1.10;;
34144;SDS011;20422;53.014;8.886;2022-10-16T12:39:56;4.70;;;1.10;;
34144;SDS011;20422;53.014;8.886;2022-10-16T12:44:51;6.03;;;1.40;;
34144;SDS011;20422;53.014;8.886;2022-10-16T12:47:21;7.13;;;1.52;;
34144;SDS011;20422;53.014;8.886;2022-10-16T12:52:25;7.63;;;1.35;;
34144;SDS011;20422;53.014;8.886;2022-10-16T12:54:57;5.30;;;1.10;;
34144;SDS011;20422;53.014;8.886;2022-10-16T13:00:41;5.40;;;0.95;;
34144;SDS011;20422;53.014;8.886;2022-10-16T13:11:33;6.07;;;1.60;;
34144;SDS011;20422;53.014;8.886;2022-10-16T13:14:16;6.72;;;2.05;;
34144;SDS011;20422;53.014;8.886;2022-10-16T13:19:50;9.10;;;1.75;;
34144;SDS011;20422;53.014;8.886;2022-10-16T13:22:29;10.32;;;1.20;;
34144;SDS011;20422;53.014;8.886;2022-10-16T13:25:15;3.60;;;1.00;;
34144;SDS011;20422;53.014;8.886;2022-10-16T13:28:04;7.72;;;1.50;;
34144;SDS011;20422;53.014;8.886;2022-10-16T13:30:33;4.40;;;1.20;;
34144;SDS011;20422;53.014;8.886;2022-10-16T13:35:53;2.58;;;0.90;;
34144;SDS011;20422;53.014;8.886;2022-10-16T13:38:20;5.20;;;1.23;;
34144;SDS011;20422;53.014;8.886;2022-10-16T13:41:00;5.35;;;1.25;;
34144;SDS011;20422;53.014;8.886;2022-10-16T13:43:37;6.60;;;1.38;;
34144;SDS011;20422;53.014;8.886;2022-10-16T13:46:12;6.05;;;1.20;;
34144;SDS011;20422;53.014;8.886;2022-10-16T13:48:40;5.32;;;0.90;;
34144;SDS011;20422;53.014;8.886;2022-10-16T13:53:35;4.57;;;1.13;;
34144;SDS011;20422;53.014;8.886;2022-10-16T13:56:02;5.53;;;1.52;;
34144;SDS011;20422;53.014;8.886;2022-10-16T13:58:28;5.07;;;1.15;;
34144;SDS011;20422;53.014;8.886;2022-10-16T14:01:16;8.48;;;1.52;;
34144;SDS011;20422;53.014;8.886;2022-10-16T14:27:44;9.88;;;1.70;;
34144;SDS011;20422;53.014;8.886;2022-10-16T14:30:12;7.18;;;1.35;;
34144;SDS011;20422;53.014;8.886;2022-10-16T14:32:41;5.40;;;1.33;;
34144;SDS011;20422;53.014;8.886;2022-10-16T14:37:52;4.43;;;1.00;;
34144;SDS011;20422;53.014;8.886;2022-10-16T14:40:18;5.53;;;1.17;;
34144;SDS011;20422;53.014;8.886;2022-10-16T14:43:04;14.73;;;1.60;;
34144;SDS011;20422;53.014;8.886;2022-10-16T14:49:15;10.13;;;0.90;;
34144;SDS011;20422;53.014;8.886;2022-10-16T14:51:43;7.25;;;1.83;;
34144;SDS011;20422;53.014;8.886;2022-10-16T14:54:11;13.73;;;2.13;;
34144;SDS011;20422;53.014;8.886;2022-10-16T14:59:13;6.65;;;1.52;;
34144;SDS011;20422;53.014;8.886;2022-10-16T15:02:01;9.43;;;1.73;;
34144;SDS011;20422;53.014;8.886;2022-10-16T15:04:42;6.00;;;1.30;;
34144;SDS011;20422;53.014;8.886;2022-10-16T15:07:07;5.93;;;1.75;;
34144;SDS011;20422;53.014;8.886;2022-10-16T15:09:40;6.65;;;1.63;;
34144;SDS011;20422;53.014;8.886;2022-10-16T15:58:07;8.43;;;1.52;;
34144;SDS011;20422;53.014;8.886;2022-10-16T16:00:32;12.73;;;1.88;;
34144;SDS011;20422;53.014;8.886;2022-10-16T16:02:57;4.95;;;1.48;;
34144;SDS011;20422;53.014;8.886;2022-10-16T16:05:25;3.53;;;1.63;;
34144;SDS011;20422;53.014;8.886;2022-10-16T16:08:22;13.85;;;2.22;;
34144;SDS011;20422;53.014;8.886;2022-10-16T16:36:17;12.48;;;2.70;;
34144;SDS011;20422;53.014;8.886;2022-10-16T16:38:44;6.55;;;1.95;;
34144;SDS011;20422;53.014;8.886;2022-10-16T17:23:30;12.75;;;4.25;;
34144;SDS011;20422;53.014;8.886;2022-10-16T17:25:56;12.25;;;3.75;;
34144;SDS011;20422;53.014;8.886;2022-10-16T17:28:21;10.40;;;2.80;;
34144;SDS011;20422;53.014;8.886;2022-10-16T17:30:47;7.63;;;3.10;;
34144;SDS011;20422;53.014;8.886;2022-10-16T17:33:12;9.07;;;3.45;;
34144;SDS011;20422;53.014;8.886;2022-10-16T17:35:39;8.10;;;3.35;;
34144;SDS011;20422;53.014;8.886;2022-10-16T17:42:11;11.32;;;4.53;;
34144;SDS011;20422;53.014;8.886;2022-10-16T17:44:36;12.25;;;3.47;;
34144;SDS011;20422;53.014;8.886;2022-10-16T17:47:01;16.15;;;4.40;;
34144;SDS011;20422;53.014;8.886;2022-10-16T17:49:27;10.55;;;4.22;;
34144;SDS011;20422;53.014;8.886;2022-10-16T17:51:52;16.95;;;8.05;;
34144;SDS011;20422;53.014;8.886;2022-10-16T17:54:18;13.38;;;6.60;;
34144;SDS011;20422;53.014;8.886;2022-10-16T17:56:44;12.05;;;6.95;;
34144;SDS011;20422;53.014;8.886;2022-10-16T17:59:14;13.48;;;6.38;;
34144;SDS011;20422;53.014;8.886;2022-10-16T18:05:45;17.35;;;6.63;;
34144;SDS011;20422;53.014;8.886;2022-10-16T18:08:10;15.30;;;6.53;;
34144;SDS011;20422;53.014;8.886;2022-10-16T18:10:35;11.68;;;5.70;;
34144;SDS011;20422;53.014;8.886;2022-10-16T18:13:01;16.30;;;4.97;;
34144;SDS011;20422;53.014;8.886;2022-10-16T18:15:29;12.05;;;3.58;;
34144;SDS011;20422;53.014;8.886;2022-10-16T18:22:15;7.20;;;2.40;;
34144;SDS011;20422;53.014;8.886;2022-10-16T18:24:40;13.55;;;3.47;;
34144;SDS011;20422;53.014;8.886;2022-10-16T18:27:05;16.45;;;2.50;;
34144;SDS011;20422;53.014;8.886;2022-10-16T18:29:31;8.18;;;2.40;;
34144;SDS011;20422;53.014;8.886;2022-10-16T18:31:56;7.68;;;3.22;;
34144;SDS011;20422;53.014;8.886;2022-10-16T18:34:22;4.45;;;2.47;;
34144;SDS011;20422;53.014;8.886;2022-10-16T18:36:47;7.22;;;2.33;;
34144;SDS011;20422;53.014;8.886;2022-10-16T18:39:13;12.60;;;2.38;;
34144;SDS011;20422;53.014;8.886;2022-10-16T18:41:42;10.03;;;2.40;;
34144;SDS011;20422;53.014;8.886;2022-10-16T18:44:11;12.45;;;2.65;;
34144;SDS011;20422;53.014;8.886;2022-10-16T18:46:37;6.38;;;2.80;;
34144;SDS011;20422;53.014;8.886;2022-10-16T18:49:04;12.73;;;3.03;;
34144;SDS011;20422;53.014;8.886;2022-10-16T18:53:58;13.68;;;2.30;;
34144;SDS011;20422;53.014;8.886;2022-10-16T18:58:54;11.10;;;2.95;;
34144;SDS011;20422;53.014;8.886;2022-10-16T19:01:24;14.35;;;3.33;;
34144;SDS011;20422;53.014;8.886;2022-10-16T19:03:53;9.18;;;3.50;;
34144;SDS011;20422;53.014;8.886;2022-10-16T19:06:20;9.43;;;3.10;;
34144;SDS011;20422;53.014;8.886;2022-10-16T19:08:45;8.95;;;2.33;;
34144;SDS011;20422;53.014;8.886;2022-10-16T19:11:15;13.40;;;3.13;;
34144;SDS011;20422;53.014;8.886;2022-10-16T19:13:42;11.55;;;2.60;;
34144;SDS011;20422;53.014;8.886;2022-10-16T19:16:10;15.88;;;4.03;;
34144;SDS011;20422;53.014;8.886;2022-10-16T19:18:46;14.40;;;3.67;;
34144;SDS011;20422;53.014;8.886;2022-10-16T19:21:12;8.25;;;2.80;;
34144;SDS011;20422;53.014;8.886;2022-10-16T19:23:38;9.05;;;2.90;;
34144;SDS011;20422;53.014;8.886;2022-10-16T19:26:08;7.93;;;2.78;;
34144;SDS011;20422;53.014;8.886;2022-10-16T19:28:35;6.15;;;2.33;;
34144;SDS011;20422;53.014;8.886;2022-10-16T19:31:05;11.23;;;3.65;;
34144;SDS011;20422;53.014;8.886;2022-10-16T19:33:33;7.15;;;2.47;;
34144;SDS011;20422;53.014;8.886;2022-10-16T19:36:15;10.13;;;2.78;;
34144;SDS011;20422;53.014;8.886;2022-10-16T19:38:42;13.38;;;3.42;;
34144;SDS011;20422;53.014;8.886;2022-10-16T19:41:10;10.18;;;4.55;;
34144;SDS011;20422;53.014;8.886;2022-10-16T19:43:37;9.95;;;3.95;;
34144;SDS011;20422;53.014;8.886;2022-10-16T19:46:16;12.38;;;3.88;;
34144;SDS011;20422;53.014;8.886;2022-10-16T19:48:43;13.30;;;3.72;;
34144;SDS011;20422;53.014;8.886;2022-10-16T19:51:12;13.60;;;4.15;;
34144;SDS011;20422;53.014;8.886;2022-10-16T19:53:39;10.10;;;3.50;;
34144;SDS011;20422;53.014;8.886;2022-10-16T19:56:15;12.95;;;3.78;;
34144;SDS011;20422;53.014;8.886;2022-10-16T19:58:43;13.48;;;3.90;;
34144;SDS011;20422;53.014;8.886;2022-10-16T20:01:09;6.93;;;3.88;;
34144;SDS011;20422;53.014;8.886;2022-10-16T20:03:35;15.60;;;4.43;;
34144;SDS011;20422;53.014;8.886;2022-10-16T20:06:03;8.68;;;4.18;;
34144;SDS011;20422;53.014;8.886;2022-10-16T20:08:31;9.13;;;4.45;;
34144;SDS011;20422;53.014;8.886;2022-10-16T20:11:00;12.40;;;4.80;;
34144;SDS011;20422;53.014;8.886;2022-10-16T20:13:27;7.85;;;4.32;;
34144;SDS011;20422;53.014;8.886;2022-10-16T20:15:53;14.48;;;5.15;;
34144;SDS011;20422;53.014;8.886;2022-10-16T20:18:18;18.67;;;6.38;;
34144;SDS011;20422;53.014;8.886;2022-10-16T20:20:45;9.95;;;5.15;;
34144;SDS011;20422;53.014;8.886;2022-10-16T20:23:16;22.27;;;6.00;;
34144;SDS011;20422;53.014;8.886;2022-10-16T20:25:45;16.95;;;8.02;;
34144;SDS011;20422;53.014;8.886;2022-10-16T20:28:12;17.52;;;7.85;;
34144;SDS011;20422;53.014;8.886;2022-10-16T20:30:40;18.67;;;8.65;;
34144;SDS011;20422;53.014;8.886;2022-10-16T20:33:07;25.92;;;10.73;;
34144;SDS011;20422;53.014;8.886;2022-10-16T20:35:37;19.75;;;8.30;;
34144;SDS011;20422;53.014;8.886;2022-10-16T20:38:04;59.70;;;24.65;;
34144;SDS011;20422;53.014;8.886;2022-10-16T20:40:29;56.58;;;28.92;;
34144;SDS011;20422;53.014;8.886;2022-10-16T20:42:55;19.83;;;6.88;;
34144;SDS011;20422;53.014;8.886;2022-10-16T20:45:20;10.73;;;5.47;;
34144;SDS011;20422;53.014;8.886;2022-10-16T20:47:46;13.73;;;5.20;;
34144;SDS011;20422;53.014;8.886;2022-10-16T20:50:11;15.30;;;6.13;;
34144;SDS011;20422;53.014;8.886;2022-10-16T20:52:38;9.23;;;5.13;;
34144;SDS011;20422;53.014;8.886;2022-10-16T20:55:04;12.07;;;5.75;;
34144;SDS011;20422;53.014;8.886;2022-10-16T20:57:30;18.13;;;5.13;;
34144;SDS011;20422;53.014;8.886;2022-10-16T20:59:55;11.77;;;5.93;;